Time;durP1;ratioP1;P1;durP2;ratioP2;P2;SDS_P1;SDS_P2;PMS_P1;PMS_P2;Temp;Humidity;BMP_temperature;BMP_pressure;BME280_temperature;BME280_humidity;BME280_pressure;Samples;Min_cycle;Max_cycle;Signal;HPM_P1;HPM_P2
2022/12/16 00:00:14;;;;;;;50.60;33.30;;;;;;;29.57;70.79;100826.88;5058666;28;69214;-42
2022/12/16 00:02:46;;;;;;;46.42;30.02;;;;;;;29.58;71.09;100823.97;5055511;28;66495;-43
2022/12/16 00:05:20;;;;;;;41.78;29.45;;;;;;;29.58;70.53;100823.97;5053059;28;69918;-43
2022/12/16 00:07:52;;;;;;;46.80;28.80;;;;;;;29.64;68.99;100827.72;5054685;28;66148;-43
2022/12/16 00:10:24;;;;;;;45.83;29.08;;;;;;;29.59;71.47;100841.03;5055612;28;69215;-40
2022/12/16 00:12:55;;;;;;;51.35;28.52;;;;;;;29.62;71.90;100846.00;5059646;28;66389;-49
2022/12/16 00:15:26;;;;;;;41.00;27.50;;;;;;;29.60;70.87;100848.91;5058519;28;69981;-45
2022/12/16 00:17:58;;;;;;;49.73;27.17;;;;;;;29.32;72.72;100819.47;5059940;28;65744;-47
2022/12/16 00:20:29;;;;;;;47.73;25.47;;;;;;;29.49;72.48;100854.16;5059841;28;69730;-45
2022/12/16 00:23:00;;;;;;;44.37;23.30;;;;;;;29.55;72.36;100872.22;5052971;28;65126;-45
2022/12/16 00:25:32;;;;;;;33.65;22.05;;;;;;;29.50;71.79;100863.91;5054984;28;69987;-46
2022/12/16 00:28:04;;;;;;;37.53;23.92;;;;;;;29.54;71.89;100884.06;5058967;28;65102;-45
2022/12/16 00:30:35;;;;;;;41.67;24.38;;;;;;;29.56;71.46;100890.09;5054672;28;69111;-45
2022/12/16 00:33:06;;;;;;;38.28;23.55;;;;;;;29.53;72.19;100880.56;5046375;28;66089;-54
2022/12/16 00:35:38;;;;;;;33.87;23.07;;;;;;;29.57;71.13;100887.19;5047308;28;70065;-46
2022/12/16 00:38:15;;;;;;;44.55;23.35;;;;;;;29.62;71.48;100894.66;5056723;28;66118;-46
2022/12/16 00:40:47;;;;;;;46.60;23.70;;;;;;;29.53;71.50;100885.97;5055968;28;70442;-47
2022/12/16 00:43:21;;;;;;;43.83;23.02;;;;;;;29.65;70.99;100905.09;5055690;28;65558;-51
2022/12/16 00:45:52;;;;;;;79.50;26.70;;;;;;;29.59;71.22;100901.31;5057523;28;70509;-47
2022/12/16 00:48:24;;;;;;;55.03;24.42;;;;;;;29.63;71.18;100907.16;5055751;28;66187;-50
2022/12/16 00:50:55;;;;;;;58.80;25.75;;;;;;;29.64;71.46;100916.91;5053118;28;70347;-50
2022/12/16 00:53:28;;;;;;;46.15;24.42;;;;;;;29.58;71.16;100906.94;5054653;28;66038;-50
2022/12/16 00:56:05;;;;;;;46.38;23.42;;;;;;;29.72;70.60;100924.81;5054983;28;69546;-51
2022/12/16 00:58:37;;;;;;;42.90;23.88;;;;;;;29.70;70.99;100929.63;5056967;28;65706;-50
2022/12/16 01:01:09;;;;;;;37.40;22.67;;;;;;;29.64;71.28;100918.81;5057140;28;69914;-50
2022/12/16 01:03:40;;;;;;;;;;;;;;;29.50;71.47;100928.78;5054606;28;65519;-49
2022/12/16 01:06:15;;;;;;;41.75;22.13;;;;;;;29.39;70.69;100868.94;5056956;28;69915;-48
2022/12/16 01:08:47;;;;;;;32.72;20.70;;;;;;;29.72;70.79;100918.56;5057388;28;65862;-49
2022/12/16 01:11:19;;;;;;;35.00;20.67;;;;;;;29.75;69.89;100916.28;5055622;28;69686;-50
2022/12/16 01:13:51;;;;;;;;;;;;;;;29.56;71.29;100933.31;5051324;28;65975;-50
2022/12/16 01:16:23;;;;;;;28.05;19.40;;;;;;;29.82;70.32;100936.03;5045930;28;70402;-50
2022/12/16 01:18:55;;;;;;;29.23;20.50;;;;;;;29.79;70.25;100933.75;5053295;28;65367;-49
2022/12/16 01:21:27;;;;;;;34.70;21.02;;;;;;;29.77;70.43;100937.69;5052012;28;70864;-51
2022/12/16 01:23:58;;;;;;;30.30;20.45;;;;;;;29.86;70.44;100949.13;5051237;28;66272;-49
2022/12/16 01:26:30;;;;;;;36.55;22.50;;;;;;;29.86;70.72;100941.00;5051619;28;69220;-51
2022/12/16 01:29:03;;;;;;;33.45;21.65;;;;;;;29.84;70.64;100936.66;5053124;28;65534;-51
2022/12/16 01:31:34;;;;;;;29.60;21.83;;;;;;;29.87;71.00;100930.00;5049248;28;70030;-50
2022/12/16 01:34:06;;;;;;;40.50;22.92;;;;;;;29.89;70.76;100938.69;5048764;28;65686;-50
2022/12/16 01:36:37;;;;;;;36.20;23.90;;;;;;;29.91;71.45;100941.22;5049599;28;69759;-50
2022/12/16 01:39:12;;;;;;;39.67;25.02;;;;;;;29.93;71.14;100939.13;5048403;28;66587;-49
2022/12/16 01:41:43;;;;;;;44.55;27.40;;;;;;;29.93;71.17;100941.84;5049770;28;70116;-50
2022/12/16 01:44:16;;;;;;;39.72;26.95;;;;;;;29.94;71.55;100940.78;5050823;28;65324;-50
2022/12/16 01:47:04;;;;;;;41.90;28.38;;;;;;;29.90;71.22;100950.38;5049649;28;70978;-49
2022/12/16 01:49:43;;;;;;;38.85;29.05;;;;;;;29.86;71.45;100943.72;5049676;28;65811;-49
2022/12/16 01:52:20;;;;;;;34.45;28.88;;;;;;;29.65;71.53;100902.38;5052982;28;69950;-52
2022/12/16 01:55:00;;;;;;;40.60;29.73;;;;;;;29.96;71.70;100949.53;5051311;28;65985;-52
2022/12/16 01:57:51;;;;;;;43.83;30.42;;;;;;;29.92;71.87;100959.94;5051694;28;70740;-50
2022/12/16 02:00:24;;;;;;;43.97;30.35;;;;;;;29.96;71.97;100944.09;5047342;28;66951;-51
2022/12/16 02:02:57;;;;;;;43.05;31.67;;;;;;;29.83;71.66;100929.56;5055476;28;70343;-51
2022/12/16 02:05:30;;;;;;;51.35;33.30;;;;;;;29.98;70.71;100947.44;5036711;28;64338;-51
2022/12/16 02:08:09;;;;;;;;;;;;;;;29.73;72.24;100950.00;5053334;28;69635;-50
2022/12/16 02:10:45;;;;;;;47.63;36.00;;;;;;;30.00;71.34;100950.75;5053581;28;65997;-49
2022/12/16 02:13:45;;;;;;;50.72;36.63;;;;;;;30.00;70.99;100950.75;5051821;28;70937;-50
2022/12/16 02:16:32;;;;;;;61.13;40.30;;;;;;;30.00;71.14;100950.75;5053726;28;65441;-52
2022/12/16 02:19:10;;;;;;;62.15;41.05;;;;;;;30.08;71.50;100953.22;5053880;28;70630;-52
2022/12/16 02:22:02;;;;;;;67.97;43.83;;;;;;;30.10;71.08;100951.13;5054670;28;65426;-50
2022/12/16 02:24:46;;;;;;;63.33;44.60;;;;;;;30.05;71.57;100948.22;5054917;28;70490;-52
2022/12/16 02:27:23;;;;;;;74.60;47.75;;;;;;;30.14;70.88;100941.53;5051584;28;66289;-51
2022/12/16 02:30:06;;;;;;;64.60;47.28;;;;;;;30.12;71.71;100943.66;5052919;28;69292;-52
2022/12/16 02:33:18;;;;;;;75.68;49.22;;;;;;;30.10;71.10;100940.31;5050816;28;66217;-50
2022/12/16 02:36:08;;;;;;;76.75;49.15;;;;;;;30.17;71.62;100935.72;5054973;28;70268;-50
2022/12/16 02:38:45;;;;;;;72.97;50.88;;;;;;;30.21;71.39;100936.94;5057848;28;65722;-51
2022/12/16 02:41:45;;;;;;;83.40;51.90;;;;;;;29.76;71.44;100858.47;5054559;28;70539;-50
2022/12/16 02:44:17;;;;;;;84.00;54.88;;;;;;;30.22;71.63;100927.78;5053384;28;66192;-50
2022/12/16 02:46:54;;;;;;;76.47;52.13;;;;;;;30.25;70.74;100927.38;5053278;28;69748;-51
2022/12/16 02:49:25;;;;;;;82.18;52.95;;;;;;;30.26;71.25;100929.03;5060406;28;66313;-51
2022/12/16 02:52:00;;;;;;;76.95;51.15;;;;;;;30.00;70.69;100875.00;5055258;28;69180;-53
2022/12/16 02:54:31;;;;;;;85.90;50.38;;;;;;;30.15;70.70;100899.94;5060567;28;66266;-54
2022/12/16 02:57:22;;;;;;;76.28;47.42;;;;;;;29.99;70.27;100862.53;5052566;28;70243;-52
2022/12/16 03:00:00;;;;;;;72.00;47.60;;;;;;;30.35;70.00;100909.84;5055352;28;68007;-53
2022/12/16 03:02:42;;;;;;;64.93;47.00;;;;;;;29.99;70.05;100847.13;5059051;28;70467;-50
2022/12/16 03:05:26;;;;;;;67.20;46.13;;;;;;;30.37;69.88;100907.75;5056403;28;67062;-53
2022/12/16 03:08:02;;;;;;;71.07;46.22;;;;;;;30.34;70.02;100902.75;5056866;28;70658;-52
2022/12/16 03:10:40;;;;;;;67.68;46.72;;;;;;;30.38;70.05;100898.59;5056282;28;66532;-53
2022/12/16 03:13:16;;;;;;;67.65;46.88;;;;;;;30.40;69.69;100896.50;5056582;28;70678;-52
2022/12/16 03:15:52;;;;;;;68.05;46.50;;;;;;;30.16;69.83;100850.16;5055634;28;65780;-52
2022/12/16 03:18:24;;;;;;;71.00;48.17;;;;;;;30.33;69.54;100874.06;5057189;28;68048;-53
2022/12/16 03:21:03;;;;;;;70.43;47.05;;;;;;;30.46;69.13;100895.63;5058006;28;66271;-51
2022/12/16 03:23:50;;;;;;;68.78;46.90;;;;;;;30.35;69.61;100889.03;5054569;28;69683;-53
2022/12/16 03:26:33;;;;;;;64.50;46.42;;;;;;;30.48;69.25;100891.66;5062046;28;66052;-52
2022/12/16 03:29:11;;;;;;;80.45;49.08;;;;;;;30.50;69.35;100886.03;5043668;28;69949;-51
2022/12/16 03:31:45;;;;;;;70.70;47.17;;;;;;;30.52;69.29;100881.22;5057992;28;65769;-51
2022/12/16 03:34:34;;;;;;;68.15;47.55;;;;;;;30.45;68.83;100861.47;5053852;28;70593;-53
2022/12/16 03:37:09;;;;;;;72.55;47.88;;;;;;;30.59;68.80;100867.63;5057019;28;66663;-49
2022/12/16 03:39:50;;;;;;;67.55;46.15;;;;;;;30.17;68.56;100795.03;5059591;28;70706;-50
2022/12/16 03:42:23;;;;;;;71.33;46.30;;;;;;;30.59;68.90;100863.06;5056542;28;66150;-51
2022/12/16 03:44:56;;;;;;;76.15;47.50;;;;;;;30.61;69.10;100860.13;5058024;28;70328;-50
2022/12/16 03:47:30;;;;;;;68.53;45.35;;;;;;;30.65;68.42;100864.91;5051307;28;66189;-50
2022/12/16 03:50:02;;;;;;;70.05;45.60;;;;;;;30.66;68.60;100863.84;5051948;28;69899;-50
2022/12/16 03:52:33;;;;;;;69.07;45.67;;;;;;;30.62;68.08;100857.22;5054454;28;66088;-49
2022/12/16 03:55:04;;;;;;;68.78;45.05;;;;;;;30.66;68.01;100858.44;5060156;28;69732;-51
2022/12/16 03:57:36;;;;;;;73.85;45.00;;;;;;;30.65;67.85;100843.25;5055795;28;65802;-50
2022/12/16 04:00:09;;;;;;;66.70;44.83;;;;;;;30.68;67.97;100856.34;5050033;28;70708;-51
2022/12/16 04:02:40;;;;;;;67.75;44.05;;;;;;;30.68;67.98;100845.50;5052557;28;65965;-50
2022/12/16 04:05:24;;;;;;;68.60;44.30;;;;;;;30.58;67.38;100828.91;5056675;28;70214;-50
2022/12/16 04:07:55;;;;;;;70.63;45.13;;;;;;;30.70;67.21;100827.16;5056529;28;65856;-51
2022/12/16 04:24:49;;;;;;;68.55;44.25;;;;;;;30.74;66.96;100805.88;5056247;28;65887;-50
2022/12/16 04:27:23;;;;;;;72.53;41.72;;;;;;;30.72;66.92;100797.97;5055438;28;70287;-52
